createdAt,value
2023-03-16T00:01:22.930Z,0.50
2023-03-16T00:03:49.589Z,0.50
2023-03-16T00:06:16.168Z,0.70
2023-03-16T00:08:43.318Z,0.20
2023-03-16T00:11:12.256Z,0.40
2023-03-16T00:13:38.896Z,0.40
2023-03-16T00:16:07.809Z,0.40
2023-03-16T00:18:39.379Z,0.40
2023-03-16T00:21:06.682Z,0.40
2023-03-16T00:23:36.187Z,0.10
2023-03-16T00:26:06.342Z,0.40
2023-03-16T00:28:35.418Z,0.50
2023-03-16T00:31:07.753Z,0.60
2023-03-16T00:33:35.436Z,0.40
2023-03-16T00:36:09.479Z,0.20
2023-03-16T00:38:39.475Z,0.40
2023-03-16T00:41:09.241Z,0.40
2023-03-16T00:43:45.599Z,0.10
2023-03-16T00:46:16.303Z,0.40
2023-03-16T00:48:46.100Z,0.20
2023-03-16T00:51:15.378Z,0.50
2023-03-16T00:53:44.197Z,0.40
2023-03-16T00:56:12.094Z,0.40
2023-03-16T00:58:43.163Z,0.40
2023-03-16T01:01:17.068Z,0.60
2023-03-16T01:03:44.056Z,0.50
2023-03-16T01:06:15.266Z,0.50
2023-03-16T01:08:42.297Z,0.50
2023-03-16T01:11:17.878Z,0.50
2023-03-16T01:13:47.276Z,0.50
2023-03-16T01:16:14.947Z,0.50
2023-03-16T01:18:41.963Z,0.60
2023-03-16T01:21:10.360Z,0.40
2023-03-16T01:23:37.458Z,0.60
2023-03-16T01:26:04.744Z,0.50
2023-03-16T01:28:32.856Z,0.60
2023-03-16T01:31:09.286Z,0.50
2023-03-16T01:33:36.507Z,0.50
2023-03-16T01:36:11.141Z,0.70
2023-03-16T01:38:45.045Z,0.40
2023-03-16T01:41:14.003Z,0.50
2023-03-16T01:43:42.641Z,0.50
2023-03-16T01:46:21.845Z,0.60
2023-03-16T01:49:12.468Z,0.40
2023-03-16T01:51:52.214Z,0.40
2023-03-16T01:54:31.650Z,0.50
2023-03-16T01:57:08.689Z,0.30
2023-03-16T01:59:44.900Z,0.30
2023-03-16T02:02:14.989Z,0.50
2023-03-16T02:05:02.100Z,0.20
2023-03-16T02:07:34.823Z,0.50
2023-03-16T02:10:04.416Z,0.30
2023-03-16T02:12:31.203Z,0.40
2023-03-16T02:14:59.447Z,0.40
2023-03-16T02:17:31.863Z,0.30
2023-03-16T02:20:34.386Z,0.40
2023-03-16T02:23:03.812Z,0.30
2023-03-16T02:25:54.180Z,0.30
2023-03-16T02:28:29.689Z,0.40
2023-03-16T02:30:57.595Z,0.50
2023-03-16T02:33:25.766Z,0.50
2023-03-16T02:35:52.469Z,0.30
2023-03-16T02:38:19.184Z,0.40
2023-03-16T02:41:13.871Z,0.50
2023-03-16T02:44:03.500Z,0.40
2023-03-16T02:46:36.006Z,0.40
2023-03-16T02:49:11.467Z,0.60
2023-03-16T02:51:38.454Z,0.50
2023-03-16T02:54:05.182Z,0.50
2023-03-16T02:56:33.246Z,0.50
2023-03-16T02:58:59.991Z,0.50
2023-03-16T03:01:26.835Z,0.40
2023-03-16T03:03:54.806Z,0.30
2023-03-16T03:06:21.552Z,0.50
2023-03-16T03:08:48.291Z,0.40
2023-03-16T03:11:14.888Z,0.60
2023-03-16T03:13:44.654Z,0.60
2023-03-16T03:16:17.090Z,0.50
2023-03-16T03:18:43.928Z,0.50
2023-03-16T03:21:10.901Z,0.30
2023-03-16T03:23:37.500Z,0.50
2023-03-16T03:26:04.951Z,0.60
2023-03-16T03:28:34.338Z,0.30
2023-03-16T03:31:01.842Z,0.50
2023-03-16T03:33:29.337Z,0.60
2023-03-16T03:35:58.475Z,0.60
2023-03-16T03:38:26.591Z,0.60
2023-03-16T03:40:56.557Z,0.70
2023-03-16T03:43:24.096Z,0.50
2023-03-16T03:45:58.802Z,0.70
2023-03-16T03:48:26.213Z,0.60
2023-03-16T03:50:53.713Z,0.50
2023-03-16T03:53:29.435Z,0.60
2023-03-16T03:56:14.834Z,0.50
2023-03-16T03:58:41.762Z,0.70
2023-03-16T04:01:08.886Z,0.70
2023-03-16T04:03:35.934Z,0.70
2023-03-16T04:06:03.884Z,0.80
2023-03-16T04:08:31.037Z,0.70
2023-03-16T04:10:57.857Z,0.50
2023-03-16T04:13:25.540Z,0.70
2023-03-16T04:15:59.625Z,0.80
2023-03-16T04:18:38.765Z,0.70
2023-03-16T04:21:07.881Z,0.80
2023-03-16T04:23:34.943Z,0.70
2023-03-16T04:26:02.415Z,0.50
2023-03-16T04:28:29.450Z,0.50
2023-03-16T04:31:02.235Z,0.50
2023-03-16T04:33:34.595Z,0.80
2023-03-16T04:36:02.739Z,0.70
2023-03-16T04:38:33.798Z,0.60
2023-03-16T04:41:02.713Z,0.50
2023-03-16T04:43:34.620Z,0.70
2023-03-16T04:46:08.008Z,0.50
2023-03-16T04:48:35.805Z,0.70
2023-03-16T04:51:05.901Z,0.50
2023-03-16T04:53:34.095Z,0.60
2023-03-16T04:56:07.623Z,0.40
2023-03-16T04:58:35.553Z,0.60
2023-03-16T05:01:02.663Z,0.60
2023-03-16T05:03:30.839Z,0.60
2023-03-16T05:05:57.646Z,0.50
2023-03-16T05:08:24.719Z,0.70
2023-03-16T05:10:59.976Z,0.80
2023-03-16T05:13:29.828Z,0.40
2023-03-16T05:15:58.857Z,0.80
2023-03-16T05:18:29.625Z,0.60
2023-03-16T05:20:57.189Z,0.60
2023-03-16T05:23:26.442Z,0.50
2023-03-16T05:25:59.847Z,0.80
2023-03-16T05:28:27.309Z,0.70
2023-03-16T05:30:59.256Z,1.00
2023-03-16T05:33:27.202Z,1.00
2023-03-16T05:35:59.763Z,1.00
2023-03-16T05:38:27.708Z,1.10
2023-03-16T05:40:55.089Z,1.10
2023-03-16T05:43:32.381Z,0.60
2023-03-16T05:45:59.300Z,0.90
2023-03-16T05:48:26.979Z,0.70
2023-03-16T05:50:55.929Z,0.70
2023-03-16T05:53:28.991Z,0.80
2023-03-16T05:55:59.262Z,0.60
2023-03-16T05:58:26.152Z,0.70
2023-03-16T06:00:52.807Z,0.80
2023-03-16T06:03:24.439Z,0.70
2023-03-16T06:05:51.778Z,0.70
2023-03-16T06:08:24.271Z,0.80
2023-03-16T06:10:51.415Z,0.80
2023-03-16T06:13:18.401Z,0.90
2023-03-16T06:15:45.399Z,0.90
2023-03-16T06:18:13.086Z,1.00
2023-03-16T06:20:39.932Z,1.10
2023-03-16T06:23:07.180Z,1.10
2023-03-16T06:25:34.354Z,0.90
2023-03-16T06:28:01.898Z,1.00
2023-03-16T06:30:29.649Z,0.80
2023-03-16T06:32:57.121Z,0.80
2023-03-16T06:35:24.495Z,0.80
2023-03-16T06:38:04.073Z,0.70
2023-03-16T06:40:56.742Z,0.90
2023-03-16T06:43:23.540Z,0.70
2023-03-16T06:45:50.504Z,0.90
2023-03-16T06:48:17.515Z,1.00
2023-03-16T06:50:46.589Z,0.70
2023-03-16T06:53:14.239Z,1.10
2023-03-16T06:55:41.852Z,1.00
2023-03-16T06:58:08.456Z,0.90
2023-03-16T07:00:35.190Z,2.00
2023-03-16T07:03:02.209Z,0.90
2023-03-16T07:05:29.471Z,1.10
2023-03-16T07:07:56.481Z,1.50
2023-03-16T07:10:24.476Z,1.00
2023-03-16T07:12:51.576Z,0.80
2023-03-16T07:15:19.580Z,1.20
2023-03-16T07:17:46.228Z,1.40
2023-03-16T07:20:13.263Z,1.10
2023-03-16T07:22:41.869Z,0.90
2023-03-16T07:25:11.513Z,1.10
2023-03-16T07:27:43.762Z,1.00
2023-03-16T07:30:14.353Z,1.20
2023-03-16T07:32:42.174Z,1.10
2023-03-16T07:35:12.694Z,1.10
2023-03-16T07:37:39.690Z,0.90
2023-03-16T07:40:09.283Z,1.20
2023-03-16T07:42:37.701Z,1.10
2023-03-16T07:45:15.193Z,1.00
2023-03-16T07:47:42.327Z,1.50
2023-03-16T07:50:16.354Z,1.60
2023-03-16T07:52:44.282Z,1.00
2023-03-16T07:55:11.857Z,1.30
2023-03-16T07:57:39.884Z,1.20
2023-03-16T08:00:07.917Z,1.00
2023-03-16T08:02:40.332Z,0.70
2023-03-16T08:05:11.075Z,0.90
2023-03-16T08:07:37.955Z,0.70
2023-03-16T08:10:11.791Z,1.00
2023-03-16T08:12:46.431Z,0.70
2023-03-16T08:15:13.356Z,0.90
2023-03-16T08:17:41.860Z,0.90
2023-03-16T08:20:14.589Z,0.70
2023-03-16T08:22:46.488Z,0.40
2023-03-16T08:25:15.702Z,0.80
2023-03-16T08:27:50.247Z,0.90
2023-03-16T08:30:17.792Z,0.90
2023-03-16T08:32:47.632Z,0.50
2023-03-16T08:35:16.837Z,0.70
2023-03-16T08:37:44.124Z,0.70
2023-03-16T08:40:15.205Z,1.20
2023-03-16T08:42:43.183Z,0.80
2023-03-16T08:45:13.798Z,0.80
2023-03-16T08:47:43.105Z,1.10
2023-03-16T08:50:13.263Z,0.80
2023-03-16T08:52:41.473Z,0.70
2023-03-16T08:55:10.908Z,0.50
2023-03-16T08:57:39.429Z,0.60
2023-03-16T09:00:13.020Z,0.60
2023-03-16T09:02:41.823Z,0.90
2023-03-16T09:05:11.172Z,0.50
2023-03-16T09:07:39.542Z,0.60
2023-03-16T09:10:13.438Z,0.80
2023-03-16T09:12:40.986Z,0.70
2023-03-16T09:15:10.223Z,1.30
2023-03-16T09:17:36.891Z,0.70
2023-03-16T09:20:19.546Z,0.20
2023-03-16T09:22:49.096Z,0.80
2023-03-16T09:25:16.140Z,0.80
2023-03-16T09:27:43.011Z,0.70
2023-03-16T09:30:10.982Z,0.90
2023-03-16T09:32:37.724Z,0.80
2023-03-16T09:35:06.418Z,0.60
2023-03-16T09:37:44.732Z,1.00
2023-03-16T09:40:27.780Z,0.70
2023-03-16T09:43:13.633Z,0.60
2023-03-16T09:45:52.721Z,0.80
2023-03-16T09:48:22.286Z,0.90
2023-03-16T09:50:49.843Z,0.80
2023-03-16T09:53:37.969Z,0.80
2023-03-16T09:56:12.698Z,0.90
2023-03-16T09:58:39.566Z,1.00
2023-03-16T10:01:12.489Z,0.40
2023-03-16T10:03:57.621Z,1.00
2023-03-16T10:06:27.925Z,1.10
2023-03-16T10:09:22.649Z,1.20
2023-03-16T10:11:55.357Z,0.70
2023-03-16T10:14:22.097Z,0.80
2023-03-16T10:17:01.406Z,0.90
2023-03-16T10:19:42.281Z,1.20
2023-03-16T10:22:26.766Z,1.40
2023-03-16T10:25:24.668Z,1.00
2023-03-16T10:27:52.485Z,1.00
2023-03-16T10:30:20.204Z,0.70
2023-03-16T10:32:48.450Z,1.50
2023-03-16T10:35:46.514Z,1.40
2023-03-16T10:38:28.868Z,1.40
2023-03-16T10:40:57.898Z,1.50
2023-03-16T10:43:25.379Z,1.50
2023-03-16T10:45:52.145Z,1.60
2023-03-16T10:48:21.397Z,1.20
2023-03-16T10:50:55.099Z,1.00
2023-03-16T10:53:26.680Z,0.80
2023-03-16T10:56:02.214Z,2.00
2023-03-16T10:58:40.304Z,1.30
2023-03-16T11:01:11.959Z,1.30
2023-03-16T11:06:16.619Z,1.20
2023-03-16T11:08:43.686Z,1.50
2023-03-16T11:11:31.214Z,1.80
2023-03-16T11:14:00.561Z,1.60
2023-03-16T11:16:41.539Z,1.60
2023-03-16T11:19:29.422Z,1.50
2023-03-16T11:22:08.561Z,1.30
2023-03-16T11:25:01.024Z,1.30
2023-03-16T11:27:35.523Z,1.50
2023-03-16T11:30:13.694Z,0.90
2023-03-16T11:32:43.001Z,1.50
2023-03-16T11:35:16.781Z,1.30
2023-03-16T11:38:29.456Z,1.30
2023-03-16T11:41:03.280Z,1.60
2023-03-16T11:43:45.193Z,1.30
2023-03-16T11:46:20.854Z,0.90
2023-03-16T11:49:15.928Z,0.60
2023-03-16T11:51:53.106Z,1.20
2023-03-16T11:54:26.003Z,1.30
2023-03-16T11:57:01.800Z,1.20
2023-03-16T11:59:42.340Z,1.30
2023-03-16T12:02:22.194Z,1.60
2023-03-16T12:05:07.929Z,1.60
2023-03-16T12:08:19.553Z,1.30
2023-03-16T12:10:58.651Z,1.40
2023-03-16T12:13:33.162Z,1.50
2023-03-16T12:16:19.827Z,1.50
2023-03-16T12:19:00.166Z,1.20
2023-03-16T12:21:31.584Z,1.20
2023-03-16T12:24:09.119Z,0.90
2023-03-16T12:26:40.060Z,1.90
2023-03-16T12:29:36.916Z,1.70
2023-03-16T12:32:18.922Z,3.90
2023-03-16T12:34:59.976Z,1.80
2023-03-16T12:37:36.477Z,1.80
2023-03-16T12:40:23.603Z,2.00
2023-03-16T12:43:10.810Z,1.10
2023-03-16T12:45:49.158Z,1.60
2023-03-16T12:48:29.263Z,1.60
2023-03-16T12:51:01.916Z,1.90
2023-03-16T12:53:43.625Z,1.70
2023-03-16T12:56:19.525Z,1.50
2023-03-16T12:58:50.486Z,2.00
2023-03-16T13:01:20.955Z,2.00
2023-03-16T13:03:50.566Z,1.80
2023-03-16T13:06:20.616Z,1.70
2023-03-16T13:08:52.844Z,1.70
2023-03-16T13:11:20.391Z,1.80
2023-03-16T13:14:04.113Z,1.40
2023-03-16T13:18:59.466Z,1.80
2023-03-16T13:21:26.087Z,1.50
2023-03-16T13:24:12.193Z,1.80
2023-03-16T13:26:40.976Z,1.80
2023-03-16T13:29:23.834Z,1.50
2023-03-16T13:31:52.484Z,1.40
2023-03-16T13:34:29.709Z,2.30
2023-03-16T13:36:59.286Z,2.10
2023-03-16T13:39:28.690Z,2.10
2023-03-16T13:42:19.329Z,2.10
2023-03-16T13:44:46.293Z,1.50
2023-03-16T13:47:19.935Z,2.00
2023-03-16T13:49:51.408Z,1.20
2023-03-16T13:52:29.458Z,1.60
2023-03-16T13:55:06.626Z,1.30
2023-03-16T13:57:39.036Z,1.90
2023-03-16T14:00:17.131Z,2.00
2023-03-16T14:02:45.554Z,2.40
2023-03-16T14:05:18.860Z,1.60
2023-03-16T14:07:51.112Z,1.20
2023-03-16T14:10:18.787Z,1.80
2023-03-16T14:12:57.642Z,1.90
2023-03-16T14:15:28.579Z,2.20
2023-03-16T14:18:12.476Z,2.00
2023-03-16T14:20:41.558Z,1.90
2023-03-16T14:23:24.744Z,2.50
2023-03-16T14:25:53.698Z,1.50
2023-03-16T14:28:27.880Z,2.10
2023-03-16T14:31:02.513Z,1.70
2023-03-16T14:33:32.246Z,1.80
2023-03-16T14:36:07.682Z,2.20
2023-03-16T14:38:37.042Z,1.40
2023-03-16T14:41:08.780Z,1.90
2023-03-16T14:43:38.320Z,1.80
2023-03-16T14:46:07.581Z,1.90
2023-03-16T14:48:35.884Z,1.80
2023-03-16T14:51:04.276Z,2.10
2023-03-16T14:53:31.752Z,2.00
2023-03-16T14:55:59.499Z,1.60
2023-03-16T14:58:26.715Z,1.80
2023-03-16T15:00:54.324Z,1.30
2023-03-16T15:03:33.206Z,1.70
2023-03-16T15:06:01.408Z,2.20
2023-03-16T15:08:33.909Z,1.90
2023-03-16T15:11:04.082Z,1.90
2023-03-16T15:13:47.095Z,2.00
2023-03-16T15:16:14.791Z,1.80
2023-03-16T15:18:41.954Z,1.20
2023-03-16T15:21:15.495Z,1.80
2023-03-16T15:23:44.094Z,1.90
2023-03-16T15:26:16.067Z,1.40
2023-03-16T15:28:43.147Z,1.20
2023-03-16T15:31:17.241Z,1.70
2023-03-16T15:33:45.376Z,1.70
2023-03-16T15:36:15.872Z,2.30
2023-03-16T15:38:51.439Z,1.60
2023-03-16T15:41:18.198Z,1.60
2023-03-16T15:43:46.023Z,1.90
2023-03-16T15:46:13.465Z,1.30
2023-03-16T15:48:40.992Z,2.10
2023-03-16T15:51:21.993Z,2.10
2023-03-16T15:53:55.626Z,1.80
2023-03-16T15:56:29.827Z,1.70
2023-03-16T15:59:02.575Z,1.80
2023-03-16T16:01:35.924Z,2.00
2023-03-16T16:04:03.620Z,1.10
2023-03-16T16:06:30.547Z,1.90
2023-03-16T16:08:57.529Z,1.60
2023-03-16T16:11:28.364Z,2.10
2023-03-16T16:13:57.199Z,1.30
2023-03-16T16:16:28.733Z,2.00
2023-03-16T16:18:55.746Z,1.80
2023-03-16T16:21:31.991Z,1.60
2023-03-16T16:23:58.793Z,2.30
2023-03-16T16:26:41.609Z,2.50
2023-03-16T16:29:17.048Z,2.60
2023-03-16T16:31:44.448Z,2.00
2023-03-16T16:34:17.166Z,1.80
2023-03-16T16:36:45.100Z,2.40
2023-03-16T16:39:11.937Z,2.00
2023-03-16T16:41:39.396Z,2.20
2023-03-16T16:44:14.144Z,2.00
2023-03-16T16:46:41.965Z,1.70
2023-03-16T16:49:17.173Z,1.80
2023-03-16T16:51:43.819Z,2.30
2023-03-16T16:54:22.248Z,2.20
2023-03-16T16:56:54.607Z,1.70
2023-03-16T16:59:24.933Z,1.80
2023-03-16T17:01:54.150Z,2.10
2023-03-16T17:04:23.521Z,2.20
2023-03-16T17:06:55.346Z,2.30
2023-03-16T17:09:23.376Z,2.20
2023-03-16T17:11:51.217Z,3.10
2023-03-16T17:14:22.117Z,2.00
2023-03-16T17:16:50.542Z,1.90
2023-03-16T17:19:23.429Z,2.10
2023-03-16T17:21:52.040Z,2.80
2023-03-16T17:24:18.803Z,2.90
2023-03-16T17:26:52.297Z,3.00
2023-03-16T17:29:31.601Z,3.10
2023-03-16T17:32:03.775Z,2.70
2023-03-16T17:34:33.710Z,4.10
2023-03-16T17:37:02.039Z,5.10
2023-03-16T17:39:31.214Z,6.10
2023-03-16T17:42:00.872Z,5.10
2023-03-16T17:44:34.962Z,4.50
2023-03-16T17:47:01.757Z,3.70
2023-03-16T17:49:28.714Z,3.30
2023-03-16T17:51:56.100Z,2.90
2023-03-16T17:54:22.980Z,2.80
2023-03-16T17:56:51.610Z,2.50
2023-03-16T17:59:21.125Z,2.90
2023-03-16T18:01:48.867Z,3.70
2023-03-16T18:04:24.293Z,6.80
2023-03-16T18:06:51.498Z,4.30
2023-03-16T18:09:20.422Z,4.10
2023-03-16T18:11:51.493Z,11.40
2023-03-16T18:14:35.345Z,7.10
2023-03-16T18:17:07.790Z,5.20
2023-03-16T18:19:34.485Z,3.60
2023-03-16T18:22:01.196Z,4.30
2023-03-16T18:24:28.327Z,4.40
2023-03-16T18:26:55.492Z,3.40
2023-03-16T18:29:22.460Z,3.20
2023-03-16T18:31:51.891Z,4.00
2023-03-16T18:34:23.908Z,4.30
2023-03-16T18:36:53.606Z,4.00
2023-03-16T18:39:23.190Z,3.50
2023-03-16T18:41:51.014Z,4.20
2023-03-16T18:44:21.196Z,4.10
2023-03-16T18:46:49.599Z,3.80
2023-03-16T18:49:27.411Z,4.10
2023-03-16T18:51:54.789Z,4.60
2023-03-16T18:54:28.913Z,3.80
2023-03-16T18:56:56.020Z,3.90
2023-03-16T18:59:22.702Z,4.70
2023-03-16T19:01:49.646Z,3.60
2023-03-16T19:04:29.341Z,2.90
2023-03-16T19:06:57.394Z,3.60
2023-03-16T19:09:27.638Z,3.50
2023-03-16T19:11:54.368Z,5.20
2023-03-16T19:14:31.551Z,4.10
2023-03-16T19:16:58.299Z,4.90
2023-03-16T19:19:25.543Z,3.80
2023-03-16T19:21:55.138Z,3.00
2023-03-16T19:24:28.376Z,3.30
2023-03-16T19:26:56.083Z,3.30
2023-03-16T19:29:31.000Z,2.90
2023-03-16T19:31:58.730Z,3.70
2023-03-16T19:34:25.955Z,3.20
2023-03-16T19:36:52.755Z,3.90
2023-03-16T19:39:20.746Z,3.10
2023-03-16T19:41:54.194Z,3.20
2023-03-16T19:44:23.774Z,2.90
2023-03-16T19:46:51.340Z,2.50
2023-03-16T19:49:21.112Z,2.40
2023-03-16T19:51:51.196Z,3.30
2023-03-16T19:54:29.146Z,3.00
2023-03-16T19:56:58.137Z,2.80
2023-03-16T19:59:32.654Z,8.00
2023-03-16T20:01:59.822Z,3.90
2023-03-16T20:04:27.589Z,3.10
2023-03-16T20:06:54.607Z,2.50
2023-03-16T20:09:22.522Z,2.90
2023-03-16T20:11:49.813Z,2.50
2023-03-16T20:14:34.860Z,2.90
2023-03-16T20:17:01.707Z,3.40
2023-03-16T20:19:28.835Z,2.60
2023-03-16T20:21:55.504Z,3.20
2023-03-16T20:24:22.235Z,2.50
2023-03-16T20:26:51.478Z,2.60
2023-03-16T20:29:28.741Z,2.50
2023-03-16T20:31:55.853Z,3.30
2023-03-16T20:34:25.855Z,3.10
2023-03-16T20:36:52.690Z,2.20
2023-03-16T20:39:19.433Z,2.30
2023-03-16T20:41:46.061Z,2.40
2023-03-16T20:44:15.532Z,2.40
2023-03-16T20:46:44.750Z,2.30
2023-03-16T20:49:25.477Z,3.40
2023-03-16T20:51:52.417Z,2.70
2023-03-16T20:54:19.331Z,2.40
2023-03-16T20:56:46.909Z,2.70
2023-03-16T20:59:20.277Z,2.50
2023-03-16T21:01:48.079Z,2.30
2023-03-16T21:04:23.990Z,2.20
2023-03-16T21:06:51.155Z,2.10
2023-03-16T21:09:19.937Z,2.30
2023-03-16T21:11:47.742Z,5.20
2023-03-16T21:14:17.695Z,3.30
2023-03-16T21:16:44.942Z,2.30
2023-03-16T21:19:14.780Z,2.30
2023-03-16T21:21:42.125Z,2.10
2023-03-16T21:24:08.825Z,2.10
2023-03-16T21:26:36.583Z,2.40
2023-03-16T21:29:08.227Z,2.30
2023-03-16T21:31:34.998Z,2.50
2023-03-16T21:34:01.957Z,2.00
2023-03-16T21:36:28.617Z,2.50
2023-03-16T21:38:55.951Z,2.20
2023-03-16T21:41:23.658Z,2.50
2023-03-16T21:43:50.408Z,2.10
2023-03-16T21:46:19.806Z,1.90
2023-03-16T21:48:52.584Z,2.50
2023-03-16T21:51:24.850Z,2.00
2023-03-16T21:53:51.669Z,2.50
2023-03-16T21:56:22.897Z,2.30
2023-03-16T21:58:51.067Z,1.90
2023-03-16T22:01:29.854Z,2.40
2023-03-16T22:04:17.179Z,2.20
2023-03-16T22:06:45.426Z,2.40
2023-03-16T22:09:18.699Z,2.20
2023-03-16T22:11:46.411Z,2.00
2023-03-16T22:14:13.093Z,1.90
2023-03-16T22:16:40.781Z,2.20
2023-03-16T22:19:12.123Z,2.20
2023-03-16T22:21:41.993Z,2.20
2023-03-16T22:24:21.916Z,2.00
2023-03-16T22:26:50.144Z,1.60
2023-03-16T22:29:19.549Z,2.90
2023-03-16T22:31:47.394Z,2.40
2023-03-16T22:34:28.148Z,1.90
2023-03-16T22:36:55.882Z,2.30
2023-03-16T22:39:22.807Z,2.00
2023-03-16T22:41:49.567Z,2.00
2023-03-16T22:44:22.835Z,1.90
2023-03-16T22:46:50.898Z,2.00
2023-03-16T22:49:23.448Z,2.00
2023-03-16T22:51:52.675Z,2.40
2023-03-16T22:54:21.406Z,2.50
2023-03-16T22:56:48.458Z,2.20
2023-03-16T22:59:19.467Z,1.90
2023-03-16T23:01:48.726Z,2.40
2023-03-16T23:04:24.801Z,2.10
2023-03-16T23:06:53.715Z,2.20
2023-03-16T23:09:21.976Z,2.20
2023-03-16T23:11:54.042Z,2.10
2023-03-16T23:14:24.255Z,2.00
2023-03-16T23:16:54.231Z,1.90
2023-03-16T23:19:25.557Z,1.70
2023-03-16T23:21:55.219Z,1.80
2023-03-16T23:24:22.372Z,1.70
2023-03-16T23:26:51.023Z,1.80
2023-03-16T23:29:17.938Z,1.60
2023-03-16T23:31:44.592Z,2.10
2023-03-16T23:34:13.652Z,1.70
2023-03-16T23:36:41.104Z,2.00
2023-03-16T23:39:08.901Z,1.50
2023-03-16T23:41:37.159Z,1.70
2023-03-16T23:44:06.714Z,1.60
2023-03-16T23:46:34.729Z,2.10
2023-03-16T23:49:04.529Z,2.10
2023-03-16T23:51:36.733Z,1.80
2023-03-16T23:54:25.396Z,1.90
2023-03-16T23:56:52.381Z,1.80
2023-03-16T23:59:20.333Z,1.80
